Spring Creek, Tennessee
Current Conditions -  °F | °C
As of 12:53 PM on Friday 31 Oct 2014 (Local Time) from KMKL Reporting Station
Overcast Overcast  
Wind Chill: 54°   Ceiling: 2900
Heat Index: 54°   Visibility: 10mi
Dew Point: 45°   Wind: 13mph
Humidity: 72%   Direction: 340°NNW
Pressure: 30.1"   Gusts: 22mph
Location:  35.76°N, 88.67°W
Report Text: KMKL 311753Z 34011G19KT 10SM BKN029 OVC037 12/07 A3010 RMK AO2 SLP192 60001 T01220072 10128 20072 50005
Loading
Personal Weather Stations






























Interactive Weather Map
Tropical Storm Tracking
New forecast layout! Learn more

10-Day Weather Forecast

Advertisements
Track Severe Weather on mobile